Time;durP1;ratioP1;P1;durP2;ratioP2;P2;SDS_P1;SDS_P2;PMS_P1;PMS_P2;Temp;Humidity;BMP_temperature;BMP_pressure;BME280_temperature;BME280_humidity;BME280_pressure;Samples;Min_cycle;Max_cycle;Signal;HPM_P1;HPM_P2
2022/01/30 00:00:20;;;;;;;37.20;4.00;;;;;;;6.16;78.57;102352.34;5044411;28;20040;-64
2022/01/30 00:02:46;;;;;;;32.13;4.22;;;;;;;6.14;78.41;102349.03;5020577;28;20025;-65
2022/01/30 00:05:11;;;;;;;31.20;4.53;;;;;;;5.99;78.87;102355.03;5045174;28;20486;-65
2022/01/30 00:07:37;;;;;;;34.33;6.07;;;;;;;6.06;78.94;102363.25;5039508;28;20060;-64
2022/01/30 00:10:06;;;;;;;35.78;4.25;;;;;;;6.11;78.54;102359.50;5042223;28;20060;-65
2022/01/30 00:12:43;;;;;;;28.38;4.00;;;;;;;5.99;79.38;102370.50;5007041;28;20029;-64
2022/01/30 00:15:13;;;;;;;34.40;4.20;;;;;;;6.01;78.91;102360.97;5037476;28;20233;-65
2022/01/30 00:17:45;;;;;;;29.27;3.63;;;;;;;5.99;79.00;102366.19;5043173;28;20028;-65
2022/01/30 00:20:18;;;;;;;24.98;4.78;;;;;;;5.86;79.47;102378.06;5029864;28;20037;-65
2022/01/30 00:22:53;;;;;;;29.23;4.70;;;;;;;5.93;78.99;102366.50;5027870;28;20044;-65
2022/01/30 00:25:31;;;;;;;19.88;3.47;;;;;;;5.89;78.98;102375.31;5022429;28;20087;-64
2022/01/30 00:28:04;;;;;;;35.47;4.63;;;;;;;5.81;79.37;102378.31;5036743;28;20040;-65
2022/01/30 00:30:34;;;;;;;27.30;4.55;;;;;;;5.78;79.30;102369.94;5009446;28;20033;-65
2022/01/30 00:33:01;;;;;;;27.52;4.30;;;;;;;5.75;79.53;102376.09;5042582;28;20033;-65
2022/01/30 00:35:27;;;;;;;21.90;4.40;;;;;;;5.78;79.59;102372.50;5037903;28;20033;-65
2022/01/30 00:37:54;;;;;;;26.55;3.55;;;;;;;5.70;79.35;102369.56;5024686;28;20322;-65
2022/01/30 00:40:20;;;;;;;32.72;4.10;;;;;;;5.65;79.29;102374.94;5018783;28;20316;-65
2022/01/30 00:42:45;;;;;;;25.00;3.20;;;;;;;5.70;79.61;102372.13;5027159;28;20047;-64
2022/01/30 00:45:11;;;;;;;27.67;3.70;;;;;;;5.60;79.61;102372.63;5023865;28;20028;-65
2022/01/30 00:47:36;;;;;;;26.00;4.47;;;;;;;5.54;80.24;102385.00;5043068;28;20105;-65
2022/01/30 00:50:03;;;;;;;28.85;3.85;;;;;;;5.58;80.15;102396.81;5042391;28;20566;-65
2022/01/30 00:52:29;;;;;;;26.33;4.75;;;;;;;5.56;80.06;102396.88;5049913;28;20039;-65
2022/01/30 00:54:54;;;;;;;20.67;3.92;;;;;;;5.58;80.19;102404.53;5019145;28;20028;-65
2022/01/30 00:57:20;;;;;;;26.27;4.90;;;;;;;5.46;80.41;102401.72;5045711;28;20079;-65
2022/01/30 00:59:46;;;;;;;38.80;4.45;;;;;;;5.42;80.06;102401.94;5044682;28;20044;-65
2022/01/30 01:02:12;;;;;;;31.42;4.75;;;;;;;5.50;80.03;102410.09;5026157;28;20032;-65
2022/01/30 01:04:37;;;;;;;27.70;4.35;;;;;;;5.42;80.45;102409.66;5028411;28;20459;-64
2022/01/30 01:07:03;;;;;;;21.85;3.58;;;;;;;5.49;80.00;102407.59;5025672;28;20210;-64
2022/01/30 01:09:36;;;;;;;26.02;4.55;;;;;;;5.39;80.20;102404.69;5026888;28;20029;-65
2022/01/30 01:25:19;;;;;;;39.08;4.25;;;;;;;5.26;80.71;102412.25;5040798;28;20033;-67
2022/01/30 01:27:45;;;;;;;25.75;4.10;;;;;;;5.22;80.30;102419.28;5022813;28;20509;-67
2022/01/30 01:30:11;;;;;;;40.05;4.30;;;;;;;5.08;81.01;102411.47;5026271;28;20043;-67
2022/01/30 01:32:37;;;;;;;28.88;4.07;;;;;;;5.20;80.32;102412.56;5046186;28;20067;-67
2022/01/30 01:35:03;;;;;;;32.30;5.72;;;;;;;5.16;80.45;102405.91;5025663;28;20029;-66
2022/01/30 01:37:29;;;;;;;32.17;4.03;;;;;;;5.12;80.21;102412.13;5022001;28;20048;-66
2022/01/30 01:39:57;;;;;;;27.35;3.97;;;;;;;5.05;80.81;102411.63;5024825;28;20084;-66
2022/01/30 01:42:26;;;;;;;28.15;3.20;;;;;;;5.05;80.77;102422.75;5044563;28;20502;-67
2022/01/30 01:44:55;;;;;;;33.30;4.60;;;;;;;4.99;81.52;102420.50;5037217;28;20033;-66
2022/01/30 01:47:23;;;;;;;43.45;5.20;;;;;;;4.92;81.49;102415.75;5040372;28;20035;-66
2022/01/30 01:49:51;;;;;;;31.75;4.57;;;;;;;4.91;81.16;102412.34;5026294;28;20554;-66
2022/01/30 01:52:18;;;;;;;31.40;4.13;;;;;;;4.87;81.40;102418.56;5046760;28;20037;-67
2022/01/30 01:54:59;;;;;;;38.33;4.32;;;;;;;4.88;81.06;102410.78;5014542;28;20360;-66
2022/01/30 01:57:27;;;;;;;24.33;3.33;;;;;;;4.71;82.20;102397.13;5006153;28;20048;-67
2022/01/30 02:00:05;;;;;;;30.77;4.57;;;;;;;4.66;82.40;102398.19;5039847;28;20037;-66
2022/01/30 02:02:40;;;;;;;42.97;5.20;;;;;;;4.70;81.74;102405.75;5023841;28;20127;-67
2022/01/30 02:05:08;;;;;;;30.48;4.18;;;;;;;4.60;82.86;102402.81;5024479;28;20040;-66
2022/01/30 02:10:10;;;;;;;21.42;3.78;;;;;;;4.57;83.53;102408.09;5022405;28;20037;-66
2022/01/30 02:12:48;;;;;;;27.55;3.92;;;;;;;4.57;83.74;102406.34;5023946;28;20033;-66
2022/01/30 02:26:08;;;;;;;35.50;4.28;;;;;;;4.45;83.84;102417.25;5022025;28;20171;-66
2022/01/30 02:28:37;;;;;;;31.13;3.92;;;;;;;4.37;84.41;102420.22;5023037;28;20482;-66
2022/01/30 02:31:12;;;;;;;34.67;4.53;;;;;;;4.35;84.57;102418.63;5038639;28;20032;-66
2022/01/30 02:33:40;;;;;;;26.83;3.55;;;;;;;4.29;84.75;102417.19;5036956;28;20025;-67
2022/01/30 02:36:06;;;;;;;30.75;4.72;;;;;;;4.25;85.53;102433.66;5045121;28;20036;-66
2022/01/30 02:38:32;;;;;;;34.20;4.30;;;;;;;4.19;85.67;102431.38;5040937;28;20039;-67
2022/01/30 02:40:59;;;;;;;26.40;4.60;;;;;;;4.32;84.87;102432.44;5021197;28;20032;-66
2022/01/30 02:43:33;;;;;;;29.27;4.78;;;;;;;4.16;85.42;102445.19;5025481;28;20039;-66
2022/01/30 02:46:40;;;;;;;29.45;5.68;;;;;;;4.08;85.78;102443.00;5022373;28;20032;-67
2022/01/30 02:48:58;;;;;;;28.40;5.32;;;;;;;4.15;85.62;102446.09;5022740;28;20083;-66
2022/01/30 02:51:32;;;;;;;34.47;5.07;;;;;;;4.22;85.40;102446.63;5045441;28;20067;-67
2022/01/30 02:54:05;;;;;;;32.10;4.70;;;;;;;4.29;85.19;102450.56;5022884;28;20029;-67
2022/01/30 02:56:36;;;;;;;28.70;3.53;;;;;;;4.20;85.17;102454.44;5022472;28;20040;-66
2022/01/30 02:59:05;;;;;;;40.13;4.75;;;;;;;4.15;84.83;102456.38;5038768;28;20259;-67
2022/01/30 03:01:34;;;;;;;29.73;4.22;;;;;;;4.20;85.06;102461.28;5011371;28;20801;-67
2022/01/30 03:04:00;;;;;;;24.55;6.18;;;;;;;4.26;84.84;102464.41;5050465;28;20634;-66
2022/01/30 03:06:27;;;;;;;29.15;4.45;;;;;;;4.17;85.01;102467.41;5021238;28;20051;-67
2022/01/30 03:08:53;;;;;;;35.47;3.92;;;;;;;4.16;85.78;102463.16;5051249;28;20040;-66
2022/01/30 03:11:20;;;;;;;29.13;4.75;;;;;;;4.27;84.85;102465.22;5025007;28;20029;-66
2022/01/30 03:13:46;;;;;;;28.13;3.53;;;;;;;4.20;84.99;102471.56;5012736;28;20014;-67
2022/01/30 03:16:16;;;;;;;35.28;4.30;;;;;;;4.22;84.89;102473.16;5023559;28;20033;-66
2022/01/30 03:18:43;;;;;;;35.17;4.40;;;;;;;4.12;84.90;102469.34;5021151;28;20036;-66
2022/01/30 03:21:09;;;;;;;32.00;4.93;;;;;;;4.14;85.33;102490.66;5038917;28;20661;-67
2022/01/30 03:23:39;;;;;;;33.85;4.85;;;;;;;4.13;85.11;102480.47;5037476;28;20033;-66
2022/01/30 03:26:06;;;;;;;25.05;3.30;;;;;;;4.01;85.77;102487.84;5022467;28;20491;-66
2022/01/30 03:29:04;;;;;;;40.78;4.40;;;;;;;4.03;85.56;102488.63;5022252;28;20029;-67
2022/01/30 03:31:33;;;;;;;42.63;5.18;;;;;;;4.12;84.76;102487.31;5019562;28;20040;-66
2022/01/30 03:33:59;;;;;;;30.33;4.25;;;;;;;4.00;85.20;102487.91;5001834;28;20060;-66
2022/01/30 03:36:34;;;;;;;28.80;4.05;;;;;;;3.89;85.79;102480.72;5021674;28;20081;-66
2022/01/30 03:39:02;;;;;;;37.85;4.03;;;;;;;3.92;85.67;102479.72;5005827;28;20039;-66
2022/01/30 03:41:27;;;;;;;33.28;3.85;;;;;;;3.99;85.98;102479.38;5023511;28;20060;-67
2022/01/30 03:43:54;;;;;;;35.97;5.55;;;;;;;4.00;85.63;102475.91;5040301;28;20111;-66
2022/01/30 03:46:21;;;;;;;31.15;5.43;;;;;;;4.02;86.09;102471.53;5033896;28;20047;-66
2022/01/30 03:48:51;;;;;;;34.80;4.05;;;;;;;4.00;86.00;102470.78;5038809;28;20033;-67
2022/01/30 03:51:37;;;;;;;27.10;4.05;;;;;;;4.09;85.77;102472.91;5021664;28;20040;-66
2022/01/30 03:54:16;;;;;;;37.15;3.92;;;;;;;4.13;85.47;102477.91;5023207;28;20025;-66
2022/01/30 03:56:42;;;;;;;24.42;3.90;;;;;;;4.02;85.64;102480.97;5024589;28;20033;-66
2022/01/30 03:59:08;;;;;;;36.05;4.30;;;;;;;4.00;85.85;102493.88;5026835;28;20059;-66
2022/01/30 04:01:35;;;;;;;40.63;5.47;;;;;;;3.92;85.63;102485.72;5019370;28;20033;-66
2022/01/30 04:04:01;;;;;;;47.10;4.65;;;;;;;3.89;86.31;102494.38;5025809;28;20040;-66
2022/01/30 04:06:27;;;;;;;22.23;3.95;;;;;;;3.98;86.28;102498.25;5043752;28;20037;-66
2022/01/30 04:08:55;;;;;;;38.10;6.55;;;;;;;3.88;86.40;102504.69;5024621;28;20033;-66
2022/01/30 04:11:49;;;;;;;35.15;4.55;;;;;;;3.85;86.78;102505.69;5020368;28;20071;-66
2022/01/30 04:14:44;;;;;;;39.20;3.85;;;;;;;3.81;86.78;102503.34;5035665;28;20491;-67
2022/01/30 04:17:28;;;;;;;26.13;3.85;;;;;;;3.82;87.16;102505.00;5041913;28;20091;-67
2022/01/30 04:20:09;;;;;;;28.65;3.97;;;;;;;3.84;86.76;102504.03;5027323;28;20032;-67
2022/01/30 04:22:55;;;;;;;42.10;5.78;;;;;;;3.85;87.12;102510.00;5037807;28;20465;-67
2022/01/30 04:25:53;;;;;;;30.42;5.38;;;;;;;3.88;87.37;102510.69;5030674;28;20044;-67
2022/01/30 04:28:37;;;;;;;31.08;4.28;;;;;;;3.93;87.17;102509.63;5041062;28;20343;-66
2022/01/30 04:31:33;;;;;;;36.00;4.63;;;;;;;3.94;87.42;102509.56;5035151;28;20256;-67
2022/01/30 04:34:11;;;;;;;37.67;4.72;;;;;;;3.96;87.10;102501.81;5041974;28;20048;-66
2022/01/30 04:52:53;;;;;;;40.80;3.65;;;;;;;3.99;86.85;102532.44;5042358;28;20040;-66
2022/01/30 04:58:23;;;;;;;34.13;4.28;;;;;;;3.98;86.75;102518.78;5035508;28;20045;-66
2022/01/30 05:06:52;;;;;;;36.63;5.57;;;;;;;3.88;86.69;102523.53;5042733;28;20131;-67
2022/01/30 05:09:37;;;;;;;29.88;4.30;;;;;;;3.82;87.08;102525.53;5038612;28;20044;-67
2022/01/30 05:12:14;;;;;;;43.97;5.43;;;;;;;3.83;86.63;102533.16;5021940;28;20491;-67
2022/01/30 05:14:55;;;;;;;27.77;4.30;;;;;;;3.80;86.92;102530.72;5023032;28;20039;-66
2022/01/30 05:17:43;;;;;;;29.98;4.75;;;;;;;3.82;86.62;102538.34;4996664;28;20057;-66
2022/01/30 05:20:16;;;;;;;38.65;4.30;;;;;;;3.73;86.88;102537.06;5039629;28;20047;-66
2022/01/30 05:22:49;;;;;;;;;;;;;;;3.75;87.16;102540.38;5024308;28;20044;-66
2022/01/30 05:25:31;;;;;;;36.63;3.75;;;;;;;3.68;86.37;102539.81;5025720;28;20390;-66
2022/01/30 05:28:13;;;;;;;36.58;4.22;;;;;;;3.60;87.69;102551.31;5024146;28;20905;-66
2022/01/30 05:30:47;;;;;;;37.72;3.72;;;;;;;3.52;87.66;102554.19;5022512;28;20028;-66
2022/01/30 05:33:34;;;;;;;30.83;4.55;;;;;;;3.49;87.48;102562.06;5023340;28;20148;-67
2022/01/30 05:36:23;;;;;;;42.53;5.57;;;;;;;3.53;87.12;102573.84;5042996;28;20447;-66
2022/01/30 05:39:08;;;;;;;30.65;3.35;;;;;;;3.46;87.34;102569.88;5028147;28;20043;-66
2022/01/30 05:41:36;;;;;;;33.10;5.05;;;;;;;3.54;87.44;102570.34;5040206;28;20033;-67
2022/01/30 05:44:32;;;;;;;32.78;3.70;;;;;;;3.40;87.50;102576.09;5024335;28;20579;-66
2022/01/30 05:47:33;;;;;;;23.67;4.18;;;;;;;3.50;87.09;102571.41;4955856;28;20264;-66
2022/01/30 05:50:12;;;;;;;34.90;3.35;;;;;;;3.43;86.75;102578.53;5022610;28;20043;-66
2022/01/30 05:52:46;;;;;;;28.95;3.80;;;;;;;3.42;87.07;102582.00;5024513;28;20041;-66
2022/01/30 05:55:35;;;;;;;32.72;4.18;;;;;;;3.54;86.55;102579.78;5033776;28;20071;-67
2022/01/30 05:58:01;;;;;;;34.47;4.10;;;;;;;3.50;86.31;102576.53;5042425;28;20032;-66
2022/01/30 06:00:45;;;;;;;28.60;4.28;;;;;;;3.35;86.38;102580.59;5005557;28;20032;-67
2022/01/30 06:03:11;;;;;;;33.50;5.03;;;;;;;3.37;86.75;102583.94;5008341;28;20024;-66
2022/01/30 06:05:38;;;;;;;33.17;3.83;;;;;;;3.47;86.29;102579.25;5021810;28;20091;-67
2022/01/30 06:08:13;;;;;;;30.33;4.68;;;;;;;3.41;85.86;102584.63;5007771;28;20140;-66
2022/01/30 06:10:39;;;;;;;33.67;3.47;;;;;;;3.44;85.79;102582.75;5024018;28;20032;-66
2022/01/30 06:13:05;;;;;;;35.58;4.88;;;;;;;3.43;86.35;102580.28;5025041;28;20454;-66
2022/01/30 06:15:32;;;;;;;27.40;3.63;;;;;;;3.33;86.58;102579.00;5042718;28;20091;-66
2022/01/30 06:18:05;;;;;;;;;;;;;;;3.20;87.02;102588.94;5023002;28;20037;-66
2022/01/30 06:20:31;;;;;;;25.67;2.92;;;;;;;3.26;86.59;102601.50;5043829;28;20331;-66
2022/01/30 06:23:32;;;;;;;26.60;3.70;;;;;;;3.21;87.03;102598.31;4941934;28;20043;-67
2022/01/30 06:26:24;;;;;;;23.50;3.22;;;;;;;3.25;86.86;102605.78;5009567;28;20576;-67
2022/01/30 06:29:08;;;;;;;22.05;3.33;;;;;;;3.23;87.07;102611.88;5040792;28;20611;-67
2022/01/30 06:31:53;;;;;;;24.83;4.05;;;;;;;3.21;87.44;102619.63;5040685;28;20521;-66
2022/01/30 06:34:37;;;;;;;28.95;3.83;;;;;;;3.33;87.15;102620.84;5037155;28;20092;-67
2022/01/30 06:37:22;;;;;;;31.15;3.42;;;;;;;3.23;87.32;102625.53;5040228;28;20107;-67
2022/01/30 06:40:12;;;;;;;30.70;4.18;;;;;;;3.24;87.20;102629.78;5041932;28;20095;-66
2022/01/30 06:42:56;;;;;;;21.55;4.18;;;;;;;3.20;87.59;102627.38;5026206;28;20102;-66
2022/01/30 06:45:42;;;;;;;29.30;4.18;;;;;;;3.17;87.39;102630.91;5041489;28;20103;-66
2022/01/30 06:48:28;;;;;;;27.90;3.28;;;;;;;3.19;87.71;102633.44;5025899;28;20339;-66
2022/01/30 06:51:21;;;;;;;47.22;4.78;;;;;;;3.27;87.90;102639.06;5011747;28;20076;-67
2022/01/30 06:54:05;;;;;;;68.85;18.23;;;;;;;3.29;87.18;102638.09;5027784;28;20107;-67
2022/01/30 06:57:00;;;;;;;39.70;9.70;;;;;;;3.29;87.39;102640.66;4971164;28;20038;-66
2022/01/30 06:59:55;;;;;;;44.65;11.52;;;;;;;3.29;87.43;102647.53;4986226;28;20082;-67
2022/01/30 07:02:50;;;;;;;83.00;25.25;;;;;;;3.34;87.30;102644.78;4967787;28;20049;-67
2022/01/30 07:05:47;;;;;;;35.75;8.75;;;;;;;3.39;86.84;102653.09;5023398;28;20132;-67
2022/01/30 07:08:23;;;;;;;48.83;13.70;;;;;;;3.43;86.52;102654.66;5023173;28;20094;-66
2022/01/30 07:10:48;;;;;;;75.80;21.77;;;;;;;3.33;86.87;102656.75;5006879;28;20037;-67
2022/01/30 07:13:14;;;;;;;82.40;24.38;;;;;;;3.36;86.68;102656.63;5020245;28;20033;-66
2022/01/30 07:18:10;;;;;;;43.90;13.23;;;;;;;3.39;86.73;102655.66;5019998;28;20045;-70
2022/01/30 07:20:35;;;;;;;75.22;23.70;;;;;;;3.30;86.05;102657.72;4987380;28;20395;-70
2022/01/30 07:23:01;;;;;;;52.63;15.63;;;;;;;3.31;86.65;102661.09;5023938;28;20051;-72
2022/01/30 07:25:27;;;;;;;52.60;12.40;;;;;;;3.34;86.17;102667.88;5010910;28;20044;-70
2022/01/30 07:27:52;;;;;;;46.38;10.57;;;;;;;3.39;86.08;102669.34;5049703;28;20583;-69
2022/01/30 07:30:21;;;;;;;45.78;8.63;;;;;;;3.43;85.67;102678.56;5051105;28;20099;-69
2022/01/30 07:32:48;;;;;;;32.40;8.23;;;;;;;3.33;86.46;102679.00;5051524;28;20075;-69
2022/01/30 07:35:13;;;;;;;37.65;5.05;;;;;;;3.35;86.94;102672.91;5051276;28;20033;-69
2022/01/30 07:37:39;;;;;;;26.73;4.25;;;;;;;3.35;86.51;102683.16;5034326;28;20048;-70
2022/01/30 07:40:06;;;;;;;26.15;4.28;;;;;;;3.36;86.67;102679.72;5032642;28;20069;-70
2022/01/30 07:42:33;;;;;;;41.55;8.98;;;;;;;3.37;86.71;102690.78;5050283;28;20036;-70
2022/01/30 07:44:59;;;;;;;35.85;5.55;;;;;;;3.46;86.00;102690.41;5049779;28;20129;-71
2022/01/30 07:47:25;;;;;;;31.30;4.80;;;;;;;3.48;85.57;102692.03;5033842;28;20127;-69
2022/01/30 07:49:54;;;;;;;34.80;4.80;;;;;;;3.45;86.02;102689.59;5053431;28;20474;-69
2022/01/30 07:52:23;;;;;;;32.47;4.20;;;;;;;3.39;85.92;102702.69;5033490;28;20100;-71
2022/01/30 07:54:49;;;;;;;40.38;9.15;;;;;;;3.50;85.97;102699.66;5010283;28;20552;-69
2022/01/30 07:57:17;;;;;;;50.28;8.30;;;;;;;3.58;85.84;102697.63;5033992;28;20040;-69
2022/01/30 07:59:43;;;;;;;27.20;3.88;;;;;;;3.65;85.21;102700.75;5050237;28;20037;-70
2022/01/30 08:02:09;;;;;;;33.80;3.55;;;;;;;3.76;84.38;102698.56;5050407;28;20028;-69
2022/01/30 08:04:35;;;;;;;23.08;3.35;;;;;;;3.78;84.27;102703.63;5046124;28;20402;-69
2022/01/30 08:07:01;;;;;;;27.10;4.15;;;;;;;3.85;83.70;102711.00;5027545;28;20033;-69
2022/01/30 08:09:27;;;;;;;23.98;3.20;;;;;;;3.79;83.36;102703.56;5052465;28;20044;-70
2022/01/30 08:11:53;;;;;;;32.05;3.85;;;;;;;3.91;83.60;102704.78;5029580;28;20029;-70
2022/01/30 08:14:19;;;;;;;20.65;3.50;;;;;;;3.96;83.11;102714.88;5047387;28;20028;-69
2022/01/30 08:16:44;;;;;;;28.55;4.30;;;;;;;4.04;82.65;102716.19;5047906;28;20509;-69
2022/01/30 08:19:10;;;;;;;20.90;3.40;;;;;;;4.02;82.65;102714.59;5034545;28;20040;-71
2022/01/30 08:21:36;;;;;;;28.95;3.30;;;;;;;3.98;82.76;102716.44;5051875;28;20375;-70
2022/01/30 08:24:02;;;;;;;21.08;3.03;;;;;;;4.04;82.54;102726.44;5048397;28;20041;-69
2022/01/30 08:26:27;;;;;;;29.80;4.78;;;;;;;4.14;82.26;102731.19;5016954;28;20052;-70
2022/01/30 08:28:53;;;;;;;34.83;4.60;;;;;;;4.15;82.43;102728.56;5033312;28;20079;-70
2022/01/30 08:31:19;;;;;;;26.95;4.32;;;;;;;4.06;82.55;102729.78;5048543;28;20036;-70
2022/01/30 08:33:44;;;;;;;35.65;4.68;;;;;;;4.19;82.47;102735.22;5050995;28;20075;-70
2022/01/30 08:36:10;;;;;;;22.25;3.38;;;;;;;4.10;82.22;102730.50;5032608;28;20041;-69
2022/01/30 08:38:39;;;;;;;36.83;4.95;;;;;;;4.14;82.06;102737.16;5021522;28;20041;-70
2022/01/30 08:41:05;;;;;;;34.33;4.85;;;;;;;4.29;81.57;102736.50;5026501;28;22105;-70
2022/01/30 08:43:31;;;;;;;25.52;3.75;;;;;;;4.30;81.15;102729.63;5049926;28;20025;-70
2022/01/30 08:45:59;;;;;;;19.55;3.50;;;;;;;4.20;81.88;102736.91;5044172;28;20581;-69
2022/01/30 08:48:25;;;;;;;33.67;4.20;;;;;;;4.29;81.00;102736.50;5025324;28;20423;-69
2022/01/30 08:50:51;;;;;;;21.02;4.25;;;;;;;4.26;81.45;102731.50;5027088;28;20506;-71
2022/01/30 08:53:17;;;;;;;25.67;3.50;;;;;;;4.32;82.00;102735.53;5029436;28;20148;-69
2022/01/30 08:55:43;;;;;;;30.75;6.72;;;;;;;4.21;82.31;102732.59;5028767;28;20041;-71
2022/01/30 08:58:13;;;;;;;22.75;3.85;;;;;;;4.20;82.69;102729.19;5042874;28;20459;-69
2022/01/30 09:00:44;;;;;;;24.20;4.22;;;;;;;4.31;82.40;102731.28;5039941;28;20496;-70
2022/01/30 09:03:10;;;;;;;30.65;5.03;;;;;;;4.35;81.42;102732.84;5029051;28;20032;-69
2022/01/30 09:05:36;;;;;;;29.30;4.20;;;;;;;4.36;81.81;102728.53;5046571;28;20116;-70
2022/01/30 09:08:04;;;;;;;39.25;4.55;;;;;;;4.52;81.32;102738.94;5044394;28;20032;-69
2022/01/30 09:10:35;;;;;;;35.47;4.38;;;;;;;4.66;81.51;102739.97;5034657;28;20455;-69
2022/01/30 09:13:01;;;;;;;31.33;3.85;;;;;;;4.70;81.05;102740.66;5048711;28;20044;-69
2022/01/30 09:15:27;;;;;;;27.85;3.67;;;;;;;4.66;80.50;102745.13;5048874;28;20029;-70
2022/01/30 09:17:57;;;;;;;29.73;4.65;;;;;;;4.77;80.01;102749.78;5046001;28;20625;-71
2022/01/30 09:20:28;;;;;;;32.22;5.32;;;;;;;4.88;79.74;102754.44;5047010;28;20036;-71
2022/01/30 09:22:53;;;;;;;26.02;6.60;;;;;;;4.87;80.33;102752.75;5045746;28;20039;-70
2022/01/30 09:25:19;;;;;;;45.85;8.43;;;;;;;4.79;79.87;102745.38;5044256;28;20036;-70
2022/01/30 09:27:45;;;;;;;29.90;5.53;;;;;;;4.78;80.58;102764.28;5045041;28;20040;-71
2022/01/30 09:30:14;;;;;;;40.85;9.18;;;;;;;4.73;80.55;102753.38;5027603;28;20402;-71
2022/01/30 09:32:40;;;;;;;38.58;8.45;;;;;;;4.99;79.48;102741.03;5012162;28;20499;-69
2022/01/30 09:35:06;;;;;;;49.53;13.77;;;;;;;4.99;79.16;102747.03;5048141;28;20070;-70
2022/01/30 09:37:32;;;;;;;42.00;8.02;;;;;;;4.92;79.00;102755.13;5035950;28;20029;-70
2022/01/30 09:39:58;;;;;;;43.90;9.80;;;;;;;5.05;79.04;102746.75;5048920;28;20115;-69
2022/01/30 09:42:24;;;;;;;37.08;8.93;;;;;;;5.14;78.74;102750.63;5027181;28;20119;-70
2022/01/30 09:44:50;;;;;;;23.38;4.15;;;;;;;5.19;78.83;102755.53;5029410;28;20032;-70
2022/01/30 09:47:17;;;;;;;36.17;9.00;;;;;;;5.18;78.72;102762.44;5052075;28;20456;-69
2022/01/30 09:49:52;;;;;;;37.20;5.97;;;;;;;5.32;78.96;102745.50;5028048;28;20041;-69
2022/01/30 09:52:19;;;;;;;35.42;4.82;;;;;;;5.22;77.61;102753.66;5011006;28;20041;-69
2022/01/30 09:54:46;;;;;;;35.97;5.40;;;;;;;5.29;78.01;102753.38;5028221;28;20029;-70
2022/01/30 09:57:12;;;;;;;27.30;4.35;;;;;;;5.27;77.72;102748.28;5043114;28;20033;-71
2022/01/30 09:59:38;;;;;;;31.90;6.20;;;;;;;5.32;77.12;102756.63;5005914;28;20506;-71
2022/01/30 10:02:05;;;;;;;33.22;3.80;;;;;;;5.44;76.72;102747.47;5041312;28;20541;-71
2022/01/30 10:04:31;;;;;;;34.95;4.57;;;;;;;5.47;76.17;102747.31;5030225;28;20474;-69
2022/01/30 10:07:03;;;;;;;31.13;4.43;;;;;;;5.48;76.06;102746.41;5054376;28;20056;-69
2022/01/30 10:09:32;;;;;;;24.58;5.05;;;;;;;5.32;76.26;102748.09;5022110;28;20299;-72
2022/01/30 10:12:14;;;;;;;27.80;3.70;;;;;;;5.31;75.70;102747.22;5043389;28;20044;-69
2022/01/30 10:14:58;;;;;;;22.98;3.47;;;;;;;5.35;75.63;102750.47;5041140;28;20029;-71
2022/01/30 10:17:50;;;;;;;33.85;4.05;;;;;;;5.46;75.78;102750.78;5026774;28;20040;-69
2022/01/30 10:20:18;;;;;;;38.35;5.38;;;;;;;5.45;75.19;102756.88;5018243;28;20067;-70
2022/01/30 10:22:55;;;;;;;31.50;4.07;;;;;;;5.63;75.71;102753.41;5023436;28;20056;-71
2022/01/30 10:25:30;;;;;;;38.20;5.57;;;;;;;5.64;74.21;102751.66;5022922;28;20029;-69
2022/01/30 10:28:12;;;;;;;30.52;3.80;;;;;;;5.72;74.55;102740.97;5041610;28;20036;-71
2022/01/30 10:30:41;;;;;;;33.83;3.72;;;;;;;5.69;74.10;102751.41;5023187;28;20036;-71
2022/01/30 10:33:12;;;;;;;28.38;4.57;;;;;;;5.70;73.57;102748.75;5023256;28;20052;-70
2022/01/30 10:35:53;;;;;;;33.80;4.80;;;;;;;5.74;74.24;102754.59;5038097;28;20024;-70
2022/01/30 10:38:38;;;;;;;23.15;4.00;;;;;;;5.76;73.68;102750.19;5024252;28;20035;-69
2022/01/30 10:41:30;;;;;;;44.05;5.50;;;;;;;5.72;74.60;102746.94;5025003;28;20472;-70
2022/01/30 10:44:01;;;;;;;33.85;4.00;;;;;;;5.77;73.74;102750.13;5008775;28;20156;-69
2022/01/30 10:46:28;;;;;;;31.38;4.50;;;;;;;5.81;73.12;102753.38;5043736;28;20085;-71
2022/01/30 10:49:02;;;;;;;33.28;4.38;;;;;;;5.89;73.06;102750.41;5043342;28;20056;-70
2022/01/30 10:51:30;;;;;;;38.80;4.65;;;;;;;5.80;71.36;102749.97;5022331;28;20045;-70
2022/01/30 10:54:13;;;;;;;35.72;5.38;;;;;;;5.92;72.01;102753.66;5025445;28;20028;-70
2022/01/30 10:56:39;;;;;;;;;;;;;;;5.83;71.75;102749.81;5041934;28;20510;-70
2022/01/30 10:59:11;;;;;;;35.42;5.60;;;;;;;5.89;69.75;102751.25;5041386;28;19962;-69
2022/01/30 11:01:42;;;;;;;40.67;4.93;;;;;;;5.99;70.65;102743.91;5040684;28;20103;-70
2022/01/30 11:04:24;;;;;;;38.95;5.45;;;;;;;5.94;68.86;102749.28;5022133;28;20033;-71
2022/01/30 11:06:52;;;;;;;43.08;4.80;;;;;;;5.95;69.43;102755.25;5037023;28;20116;-69
2022/01/30 11:09:25;;;;;;;40.03;6.53;;;;;;;5.96;69.56;102747.47;5042236;28;20250;-69
2022/01/30 11:12:01;;;;;;;36.20;4.70;;;;;;;6.07;69.97;102743.53;5044343;28;20044;-70
2022/01/30 11:14:37;;;;;;;43.67;5.57;;;;;;;6.09;70.03;102731.41;5022817;28;20041;-69
2022/01/30 11:17:05;;;;;;;46.13;5.35;;;;;;;6.15;68.82;102728.50;5044984;28;20050;-69
2022/01/30 11:19:34;;;;;;;44.53;5.18;;;;;;;6.26;66.68;102731.34;5026683;28;20033;-69
2022/01/30 11:22:01;;;;;;;33.78;5.95;;;;;;;6.36;64.86;102722.22;5029733;28;20486;-70
2022/01/30 11:24:26;;;;;;;43.95;5.80;;;;;;;6.54;65.01;102717.00;5020451;28;20040;-70
2022/01/30 11:26:53;;;;;;;37.60;6.55;;;;;;;6.55;65.10;102732.38;5024689;28;20029;-69
2022/01/30 11:29:20;;;;;;;33.92;4.97;;;;;;;6.54;64.21;102714.44;5043010;28;20040;-69
2022/01/30 11:31:46;;;;;;;40.63;5.40;;;;;;;6.48;65.01;102715.59;5011333;28;20036;-69
2022/01/30 11:34:13;;;;;;;39.95;5.22;;;;;;;6.55;65.49;102701.44;5039529;28;20028;-72
2022/01/30 11:36:41;;;;;;;45.67;5.35;;;;;;;6.59;64.97;102709.84;5041853;28;20033;-69
2022/01/30 11:39:08;;;;;;;38.83;5.78;;;;;;;6.60;65.51;102698.63;5041905;28;20033;-70
2022/01/30 11:41:37;;;;;;;36.83;4.95;;;;;;;6.64;64.35;102694.97;5023251;28;20052;-70
2022/01/30 11:44:18;;;;;;;42.88;5.50;;;;;;;6.57;64.40;102698.78;5024622;28;20487;-70
2022/01/30 11:47:04;;;;;;;36.90;4.53;;;;;;;6.48;64.65;102700.13;5025382;28;20037;-69
2022/01/30 11:49:45;;;;;;;49.75;6.05;;;;;;;6.37;63.34;102703.28;5042450;28;20036;-71
2022/01/30 11:52:11;;;;;;;46.47;5.47;;;;;;;6.32;64.52;102707.00;5025570;28;20036;-70
2022/01/30 11:54:50;;;;;;;36.67;5.43;;;;;;;6.30;64.27;102696.78;5022976;28;20040;-69
2022/01/30 11:57:22;;;;;;;42.22;5.82;;;;;;;6.31;63.72;102687.28;5020856;28;20479;-70
2022/01/30 12:00:00;;;;;;;54.90;6.43;;;;;;;6.26;63.90;102692.72;5040601;28;20063;-70
2022/01/30 12:02:36;;;;;;;38.53;5.65;;;;;;;6.16;63.82;102681.22;5025412;28;20152;-70
2022/01/30 12:05:07;;;;;;;39.17;5.03;;;;;;;6.18;63.64;102687.13;5024144;28;20037;-70
2022/01/30 12:07:41;;;;;;;42.95;5.20;;;;;;;6.14;63.28;102678.75;5025349;28;20046;-70
2022/01/30 12:10:16;;;;;;;35.47;4.47;;;;;;;6.32;62.87;102682.06;5043034;28;20033;-69
2022/01/30 12:12:59;;;;;;;43.90;6.15;;;;;;;6.34;61.56;102687.97;5031765;28;20033;-69
2022/01/30 12:15:39;;;;;;;34.67;5.20;;;;;;;6.33;61.81;102693.19;5052385;28;20382;-70
2022/01/30 12:18:37;;;;;;;41.60;5.38;;;;;;;6.42;62.46;102685.81;5027236;28;20149;-70
2022/01/30 12:21:16;;;;;;;45.83;5.20;;;;;;;6.45;62.41;102684.81;5046714;28;20040;-71
2022/01/30 12:23:43;;;;;;;46.28;7.00;;;;;;;6.48;62.30;102689.81;5049443;28;20090;-71
2022/01/30 12:26:14;;;;;;;45.92;5.20;;;;;;;6.46;62.95;102686.50;5044756;28;20102;-70
2022/01/30 12:28:41;;;;;;;44.55;6.82;;;;;;;6.53;63.08;102681.81;5044750;28;20040;-70
2022/01/30 12:31:39;;;;;;;35.47;5.10;;;;;;;6.58;62.03;102669.53;5046100;28;20028;-70
2022/01/30 12:34:10;;;;;;;44.42;5.57;;;;;;;6.54;61.48;102668.03;5000103;28;20029;-70
2022/01/30 12:36:41;;;;;;;33.53;5.22;;;;;;;6.46;61.47;102673.59;5046850;28;20487;-69
2022/01/30 12:39:16;;;;;;;37.28;4.65;;;;;;;6.32;60.33;102671.75;5036232;28;20025;-69
2022/01/30 12:41:45;;;;;;;44.22;6.28;;;;;;;6.33;60.84;102673.44;5048331;28;20079;-71
2022/01/30 12:44:14;;;;;;;27.00;4.93;;;;;;;6.39;61.24;102674.84;5043829;28;20037;-70